Time;durP1;ratioP1;P1;durP2;ratioP2;P2;SDS_P1;SDS_P2;PMS_P1;PMS_P2;Temp;Humidity;BMP_temperature;BMP_pressure;BME280_temperature;BME280_humidity;BME280_pressure;Samples;Min_cycle;Max_cycle;Signal;HPM_P1;HPM_P2
2021/07/10 00:01:38;;;;;;;2.67;0.93;;;;;;;21.50;61.86;99155.22;258607;1096;115567;-69
2021/07/10 00:07:05;;;;;;;4.38;0.90;;;;;;;21.43;61.53;99146.92;256228;1096;115857;-69
2021/07/10 00:13:09;;;;;;;2.00;0.80;;;;;;;21.36;61.67;99151.26;260067;1095;114633;-65
2021/07/10 00:18:39;;;;;;;;;;;;;;;;;;;;;
2021/07/10 00:24:46;;;;;;;3.33;1.10;;;;;;;21.26;61.54;99172.16;256575;1100;115632;-69
2021/07/10 00:30:01;;;;;;;3.37;1.20;;;;;;;21.25;61.91;99171.31;256011;1099;114527;-67
2021/07/10 00:36:08;;;;;;;2.40;1.20;;;;;;;21.25;61.74;99163.19;255992;1099;115408;-70
2021/07/10 00:41:40;;;;;;;;;;;;;;;;;;;;;
2021/07/10 00:47:35;;;;;;;3.23;1.20;;;;;;;21.24;61.77;99190.44;257760;1096;114634;-65
2021/07/10 00:53:08;;;;;;;1.33;0.87;;;;;;;21.20;61.60;99202.59;257776;1096;115024;-69
2021/07/10 00:58:37;;;;;;;5.13;1.20;;;;;;;21.16;61.65;99204.77;256477;1095;114948;-68
2021/07/10 01:04:36;;;;;;;2.40;1.00;;;;;;;21.10;61.47;99204.55;258203;1096;115444;-70
2021/07/10 01:16:56;;;;;;;6.27;1.77;;;;;;;20.97;61.43;99204.95;258642;1095;118321;-67
2021/07/10 01:22:44;;;;;;;2.47;0.93;;;;;;;20.93;61.35;99226.07;258087;1095;114823;-66
2021/07/10 01:28:14;;;;;;;1.70;1.00;;;;;;;20.93;61.75;99236.89;257469;1096;114960;-67
2021/07/10 01:33:34;;;;;;;2.13;1.10;;;;;;;20.90;61.54;99223.67;258121;1096;115546;-68
2021/07/10 01:39:10;;;;;;;5.47;1.00;;;;;;;20.85;61.31;99212.45;256680;1096;115527;-68
2021/07/10 01:44:38;;;;;;;3.83;0.90;;;;;;;20.80;60.91;99214.80;260681;1096;114566;-68
2021/07/10 01:50:00;;;;;;;1.87;0.77;;;;;;;20.75;61.31;99211.70;256897;1096;114491;-68
2021/07/10 01:55:21;;;;;;;1.10;0.73;;;;;;;20.69;61.46;99231.28;260559;1095;115209;-67
2021/07/10 02:00:52;;;;;;;1.47;0.80;;;;;;;20.65;61.50;99225.33;258837;1095;115167;-67
2021/07/10 02:06:33;;;;;;;3.90;0.97;;;;;;;20.61;61.47;99226.62;258836;1096;116624;-64
2021/07/10 02:13:04;;;;;;;4.17;0.90;;;;;;;20.62;61.81;99233.75;256889;1100;117061;-65
2021/07/10 02:18:17;;;;;;;;;;;;;;;20.60;61.98;99249.27;259187;1100;115142;-65
2021/07/10 02:23:51;;;;;;;;;;;;;;;;;;;;;
2021/07/10 02:29:19;;;;;;;1.67;1.00;;;;;;;20.52;61.80;99263.56;261357;1098;115468;-66
2021/07/10 02:34:39;;;;;;;3.53;0.97;;;;;;;20.49;62.14;99257.58;260918;1100;115190;-66
2021/07/10 02:40:13;;;;;;;2.13;1.43;;;;;;;20.47;61.93;99267.68;258184;1099;118133;-66
2021/07/10 02:45:41;;;;;;;1.10;0.80;;;;;;;20.39;61.74;99271.16;257620;1098;115649;-65
2021/07/10 02:51:18;;;;;;;1.10;0.90;;;;;;;20.38;62.09;99272.17;256547;1096;115288;-65
2021/07/10 02:56:41;;;;;;;2.60;1.10;;;;;;;20.37;62.08;99262.34;257591;1096;115279;-65
2021/07/10 03:02:02;;;;;;;1.20;0.80;;;;;;;20.38;61.95;99236.15;257654;1096;114817;-68
2021/07/10 03:07:39;;;;;;;1.20;0.70;;;;;;;20.41;61.78;99236.69;260802;1096;116316;-66
2021/07/10 03:13:19;;;;;;;2.25;0.60;;;;;;;20.41;61.63;99227.73;255979;1095;115567;-68
2021/07/10 03:23:56;;;;;;;2.50;0.70;;;;;;;20.33;61.58;99198.77;257331;1093;103018;-66
2021/07/10 03:29:33;;;;;;;3.67;0.87;;;;;;;20.29;61.26;99200.09;256295;1096;115818;-67
2021/07/10 03:35:20;;;;;;;3.80;1.00;;;;;;;20.22;61.13;99199.00;256425;1096;114608;-66
2021/07/10 03:41:14;;;;;;;2.03;0.90;;;;;;;20.12;60.93;99199.06;256578;1096;114760;-66
2021/07/10 03:47:43;;;;;;;2.53;1.10;;;;;;;20.04;61.39;99204.36;257928;1096;114455;-51
2021/07/10 03:53:09;;;;;;;6.30;5.13;;;;;;;20.44;63.54;99213.91;258253;1095;115008;-52
2021/07/10 03:58:47;;;;;;;4.65;3.23;;;;;;;20.97;63.59;99207.66;256008;1095;115350;-52
2021/07/10 04:04:26;;;;;;;6.45;2.30;;;;;;;21.37;62.73;99212.55;257402;1096;115017;-53
2021/07/10 04:10:10;;;;;;;5.57;2.70;;;;;;;21.44;61.69;99208.19;256470;1095;114944;-53
2021/07/10 04:15:43;;;;;;;7.87;3.07;;;;;;;21.55;61.66;99206.21;256440;1095;114565;-51
2021/07/10 04:21:10;;;;;;;7.00;1.70;;;;;;;21.54;61.14;99224.33;256278;1095;114306;-53
2021/07/10 04:26:30;;;;;;;3.07;1.30;;;;;;;21.52;61.10;99231.75;256943;1096;114994;-53
2021/07/10 04:31:54;;;;;;;1.97;1.23;;;;;;;21.54;61.05;99242.44;256468;1096;115564;-53
2021/07/10 04:37:26;;;;;;;7.47;1.73;;;;;;;21.53;60.65;99256.97;257878;1096;116893;-54
2021/07/10 04:42:57;;;;;;;13.13;7.80;;;;;;;21.48;60.64;99263.72;256220;1096;114867;-53
2021/07/10 04:48:44;;;;;;;1.60;0.90;;;;;;;21.17;59.58;99263.30;258241;1095;114834;-62
2021/07/10 04:54:31;;;;;;;2.25;1.40;;;;;;;20.77;59.69;99272.76;257898;1096;115989;-62
2021/07/10 04:59:55;;;;;;;3.23;1.20;;;;;;;20.48;59.59;99259.44;256066;1096;115587;-60
2021/07/10 05:05:24;;;;;;;2.83;1.10;;;;;;;20.28;60.20;99261.41;258013;1096;115148;-61
2021/07/10 05:10:59;;;;;;;;;;;;;;;;;;;;;
2021/07/10 05:16:18;;;;;;;2.93;1.50;;;;;;;20.00;60.68;99248.89;260851;1096;117810;-62
2021/07/10 05:21:42;;;;;;;3.47;1.50;;;;;;;19.94;60.69;99261.17;258139;1095;114972;-61
2021/07/10 05:27:12;;;;;;;3.20;1.33;;;;;;;19.89;60.85;99258.05;258022;1094;115827;-60
2021/07/10 05:32:45;;;;;;;2.13;1.33;;;;;;;19.84;61.09;99271.17;256785;1093;115955;-60
2021/07/10 05:38:11;;;;;;;3.63;1.50;;;;;;;19.82;61.10;99273.16;256699;1095;115596;-61
2021/07/10 05:43:46;;;;;;;;;;;;;;;;;;;;;
2021/07/10 05:49:12;;;;;;;2.87;1.20;;;;;;;19.73;61.38;99284.84;260741;1096;114588;-61
2021/07/10 05:54:40;;;;;;;2.80;1.60;;;;;;;19.76;61.47;99292.64;259390;1095;115940;-62
2021/07/10 06:00:11;;;;;;;2.47;1.10;;;;;;;19.77;61.50;99297.92;260158;1095;117791;-61
2021/07/10 06:06:02;;;;;;;1.83;1.17;;;;;;;19.80;61.58;99294.92;256253;1096;114884;-60
2021/07/10 06:11:24;;;;;;;3.95;1.45;;;;;;;19.89;61.37;99301.27;260774;1093;115488;-62
2021/07/10 06:16:48;;;;;;;4.98;1.50;;;;;;;19.94;61.24;99306.22;259606;1096;115235;-60
2021/07/10 06:22:19;;;;;;;3.43;1.60;;;;;;;19.97;61.41;99305.92;256760;1095;114323;-62
2021/07/10 06:27:58;;;;;;;3.73;1.27;;;;;;;20.01;61.54;99315.46;259055;1095;114879;-60
2021/07/10 06:33:34;;;;;;;2.87;1.40;;;;;;;20.07;61.33;99304.91;257055;1095;114865;-61
2021/07/10 06:39:56;;;;;;;1.50;1.35;;;;;;;20.12;61.49;99311.71;259391;1093;116707;-61
2021/07/10 06:46:07;;;;;;;9.83;4.20;;;;;;;20.32;62.01;99305.20;258071;1096;116087;-53
2021/07/10 06:52:41;;;;;;;6.17;2.87;;;;;;;20.59;61.70;99298.11;257933;1096;114639;-53
2021/07/10 06:59:05;;;;;;;5.30;2.53;;;;;;;20.86;61.37;99294.50;259051;1095;116952;-54
2021/07/10 07:05:49;;;;;;;3.05;2.10;;;;;;;21.07;61.11;99303.14;257944;1095;115493;-53
2021/07/10 07:11:44;;;;;;;29.67;20.07;;;;;;;21.16;60.96;99315.75;259027;1096;114932;-54
2021/07/10 07:17:23;;;;;;;6.13;4.13;;;;;;;21.27;60.25;99317.35;257437;1093;115395;-49
2021/07/10 07:22:38;;;;;;;8.03;3.07;;;;;;;21.32;60.36;99325.84;260734;1095;117007;-53
2021/07/10 07:27:48;;;;;;;10.43;6.37;;;;;;;21.39;60.09;99317.97;263025;1096;114904;-49
2021/07/10 07:33:05;;;;;;;125.45;81.55;;;;;;;21.50;59.89;99312.29;255275;1096;115023;-50
2021/07/10 07:38:20;;;;;;;18.50;11.47;;;;;;;21.58;59.67;99316.94;256544;1095;115496;-49
2021/07/10 07:43:38;;;;;;;9.13;5.00;;;;;;;21.61;59.31;99309.34;261038;1095;115491;-49
2021/07/10 07:48:50;;;;;;;5.23;3.48;;;;;;;21.65;59.29;99316.14;263183;1094;114840;-52
2021/07/10 07:54:14;;;;;;;;;;;;;;;;;;;;;
2021/07/10 08:00:14;;;;;;;15.80;4.50;;;;;;;21.83;59.21;99310.65;259368;1095;115836;-52
2021/07/10 08:05:49;;;;;;;2.03;1.10;;;;;;;21.87;58.59;99319.30;259008;1095;114968;-53
2021/07/10 08:11:01;;;;;;;3.33;1.50;;;;;;;21.85;58.68;99322.19;258881;1096;114925;-49
2021/07/10 08:16:13;;;;;;;3.67;1.33;;;;;;;21.82;58.43;99327.08;263117;1096;114788;-52
2021/07/10 08:21:29;;;;;;;4.30;1.45;;;;;;;21.73;57.70;99328.88;262928;1096;114502;-62
2021/07/10 08:26:42;;;;;;;5.33;1.33;;;;;;;21.59;57.80;99324.05;260990;1096;114938;-68
2021/07/10 08:31:58;;;;;;;1.90;1.20;;;;;;;21.53;57.99;99330.09;261035;1095;114534;-68
2021/07/10 08:37:20;;;;;;;1.78;1.08;;;;;;;21.52;58.16;99326.54;259724;1094;115851;-68
2021/07/10 08:42:35;;;;;;;1.35;1.25;;;;;;;21.59;58.12;99324.89;257968;1095;115356;-68
2021/07/10 08:48:33;;;;;;;2.13;1.30;;;;;;;21.61;58.02;99325.59;259892;1094;115861;-68
2021/07/10 08:54:00;;;;;;;3.83;1.33;;;;;;;21.69;58.08;99322.08;259190;1093;115981;-68
2021/07/10 08:59:17;;;;;;;2.20;1.33;;;;;;;21.76;58.09;99319.59;259986;1096;115502;-68
2021/07/10 09:04:35;;;;;;;2.10;0.90;;;;;;;21.85;57.92;99324.05;261016;1096;115720;-68
2021/07/10 09:09:48;;;;;;;1.57;1.13;;;;;;;21.84;57.38;99323.21;260390;1096;115127;-68
2021/07/10 09:15:37;;;;;;;3.00;1.00;;;;;;;21.91;57.56;99323.42;262389;1095;114475;-67
2021/07/10 09:20:53;;;;;;;1.53;0.95;;;;;;;22.03;57.08;99321.27;256898;1098;114711;-69
2021/07/10 09:26:41;;;;;;;1.15;0.90;;;;;;;22.09;56.97;99329.61;255459;1098;115791;-69
2021/07/10 09:32:19;;;;;;;1.20;0.90;;;;;;;22.11;56.97;99326.72;258961;1100;114608;-67
2021/07/10 09:37:43;;;;;;;2.17;1.00;;;;;;;22.16;56.52;99322.55;257025;1100;115141;-68
2021/07/10 09:43:23;;;;;;;2.70;1.10;;;;;;;22.30;56.85;99326.52;257890;1098;116894;-68
2021/07/10 09:48:47;;;;;;;2.50;1.03;;;;;;;22.35;56.29;99337.73;256544;1099;115947;-67
2021/07/10 09:54:06;;;;;;;1.03;0.80;;;;;;;22.38;56.68;99342.84;258595;1094;116055;-66
2021/07/10 09:59:24;;;;;;;1.13;1.00;;;;;;;22.41;56.38;99331.63;257971;1095;115506;-68
2021/07/10 10:04:38;;;;;;;1.53;1.07;;;;;;;22.43;56.15;99334.20;259040;1096;115422;-61
2021/07/10 10:09:59;;;;;;;3.07;1.00;;;;;;;22.47;56.17;99338.27;259138;1095;115211;-60
2021/07/10 10:15:19;;;;;;;39.30;33.27;;;;;;;22.47;55.99;99334.72;258217;1095;114997;-59
2021/07/10 10:21:09;;;;;;;28.67;16.90;;;;;;;22.65;56.33;99327.30;257902;1094;114676;-60
2021/07/10 10:26:47;;;;;;;4.23;3.17;;;;;;;22.90;56.07;99320.08;261742;1096;115379;-65
2021/07/10 10:32:24;;;;;;;3.43;2.40;;;;;;;23.20;56.69;99315.91;262158;1095;115194;-68
2021/07/10 10:38:02;;;;;;;3.53;1.40;;;;;;;23.45;55.50;99314.02;263031;1095;114673;-57
2021/07/10 10:43:39;;;;;;;4.93;2.07;;;;;;;23.61;55.35;99318.59;263066;1096;115373;-57
2021/07/10 10:49:42;;;;;;;3.83;1.33;;;;;;;23.79;55.22;99327.42;263263;1096;114425;-59
2021/07/10 10:54:51;;;;;;;2.43;1.10;;;;;;;23.79;54.49;99318.42;263249;1096;118083;-59
2021/07/10 10:59:55;;;;;;;1.90;1.70;;;;;;;23.75;54.66;99317.92;262561;1095;114516;-59
2021/07/10 11:05:00;;;;;;;2.75;1.93;;;;;;;23.76;54.75;99310.61;263058;1095;114574;-59
2021/07/10 11:10:16;;;;;;;7.73;5.70;;;;;;;23.74;54.47;99302.64;262920;1096;115183;-57
2021/07/10 11:15:25;;;;;;;2.50;1.90;;;;;;;23.96;55.00;99292.05;262867;1095;114694;-60
2021/07/10 11:20:44;;;;;;;3.27;1.43;;;;;;;24.31;54.62;99294.27;262757;1095;115422;-59
2021/07/10 11:25:52;;;;;;;1.80;1.10;;;;;;;24.67;54.41;99292.94;262787;1096;115037;-59
2021/07/10 11:31:03;;;;;;;3.83;1.20;;;;;;;24.99;53.81;99289.98;262080;1096;114867;-58
2021/07/10 11:36:31;;;;;;;3.90;1.37;;;;;;;25.18;53.36;99290.56;262100;1096;114705;-58
2021/07/10 11:41:35;;;;;;;1.55;1.13;;;;;;;25.48;53.95;99288.77;262889;1095;115152;-58
2021/07/10 11:47:11;;;;;;;2.15;1.30;;;;;;;25.74;53.70;99285.59;262888;1095;114572;-59
2021/07/10 11:52:19;;;;;;;1.83;1.23;;;;;;;25.75;52.99;99275.52;262206;1096;115201;-59
2021/07/10 11:57:28;;;;;;;1.97;1.10;;;;;;;25.60;52.17;99272.80;262920;1096;114509;-60
2021/07/10 12:02:32;;;;;;;2.57;1.30;;;;;;;25.41;51.70;99266.86;262626;1096;115051;-58
2021/07/10 12:07:42;;;;;;;17.43;13.83;;;;;;;25.42;51.92;99264.97;262662;1095;114741;-58
2021/07/10 12:12:48;;;;;;;3.90;2.73;;;;;;;25.43;51.67;99256.59;262879;1095;115059;-59
2021/07/10 12:17:55;;;;;;;3.33;1.60;;;;;;;25.48;51.33;99256.91;263057;1095;114591;-59
2021/07/10 12:23:31;;;;;;;7.37;1.60;;;;;;;25.49;50.99;99255.86;262829;1095;114874;-57
2021/07/10 12:28:39;;;;;;;2.37;1.00;;;;;;;25.45;50.66;99253.70;262498;1096;114853;-60
2021/07/10 12:33:52;;;;;;;2.35;1.20;;;;;;;25.43;51.03;99245.70;262606;1095;115158;-59
2021/07/10 12:39:09;;;;;;;2.37;1.00;;;;;;;25.76;50.98;99242.63;262400;1095;115030;-61
2021/07/10 12:44:23;;;;;;;2.13;1.00;;;;;;;26.15;50.73;99250.55;262878;1096;114907;-59
2021/07/10 12:49:57;;;;;;;1.83;1.20;;;;;;;26.49;50.19;99242.78;262767;1096;114919;-58
2021/07/10 12:55:08;;;;;;;3.10;1.45;;;;;;;26.73;50.28;99233.38;263127;1095;115131;-58
2021/07/10 13:00:21;;;;;;;5.73;1.93;;;;;;;26.81;50.11;99227.80;262738;1096;116451;-58
2021/07/10 13:05:39;;;;;;;1.97;1.20;;;;;;;27.01;49.82;99228.83;262680;1096;115773;-61
2021/07/10 13:10:50;;;;;;;3.23;1.23;;;;;;;26.85;49.88;99231.83;262827;1095;115185;-58
2021/07/10 13:16:02;;;;;;;2.47;1.00;;;;;;;27.06;49.83;99225.50;262816;1095;114740;-60
2021/07/10 13:21:09;;;;;;;1.40;1.10;;;;;;;27.16;49.29;99226.03;262827;1096;116495;-58
2021/07/10 13:26:22;;;;;;;37.30;32.67;;;;;;;27.45;49.19;99230.48;262834;1095;115240;-60
2021/07/10 13:31:32;;;;;;;4.95;3.00;;;;;;;27.80;49.65;99227.78;262700;1096;115584;-58
2021/07/10 13:36:39;;;;;;;2.23;1.60;;;;;;;28.05;49.09;99220.74;262804;1096;115139;-59
2021/07/10 13:41:52;;;;;;;1.43;1.20;;;;;;;28.30;48.93;99214.76;262804;1096;115566;-61
2021/07/10 13:46:59;;;;;;;27.40;20.52;;;;;;;28.45;48.22;99209.14;262839;1095;114829;-59
2021/07/10 13:52:05;;;;;;;18.00;13.85;;;;;;;28.46;47.49;99208.08;262327;1095;115313;-58
2021/07/10 13:57:32;;;;;;;3.00;2.00;;;;;;;27.94;47.02;99209.55;262806;1095;115678;-58
2021/07/10 14:02:40;;;;;;;2.53;1.60;;;;;;;27.48;47.28;99202.75;262620;1095;115193;-60
2021/07/10 14:07:50;;;;;;;1.90;1.47;;;;;;;27.48;47.31;99205.48;262767;1095;114782;-57
2021/07/10 14:13:00;;;;;;;4.27;2.40;;;;;;;27.47;47.29;99200.19;262808;1095;114558;-59
2021/07/10 14:18:05;;;;;;;3.60;1.90;;;;;;;27.51;47.77;99202.34;262822;1095;115174;-58
2021/07/10 14:23:09;;;;;;;;;;;;;;;27.74;48.17;99199.30;262782;1095;115488;-57
2021/07/10 14:28:12;;;;;;;2.28;2.00;;;;;;;27.83;47.65;99192.66;262493;1095;101049;-58
2021/07/10 14:33:16;;;;;;;;;;;;;;;27.71;47.47;99196.13;262640;1095;115142;-58
2021/07/10 14:38:20;;;;;;;2.27;1.70;;;;;;;27.57;47.55;99184.27;262289;1095;102932;-57
2021/07/10 14:43:23;;;;;;;3.80;1.48;;;;;;;27.44;46.84;99185.03;262759;1095;114749;-58
2021/07/10 14:48:27;;;;;;;3.15;1.58;;;;;;;27.26;47.30;99173.77;262457;1096;114896;-58
2021/07/10 14:53:30;;;;;;;4.23;1.55;;;;;;;26.99;47.10;99175.42;262675;1095;115330;-61
2021/07/10 14:58:38;;;;;;;3.80;1.40;;;;;;;26.55;46.70;99174.61;262412;1095;115080;-58
2021/07/10 15:03:41;;;;;;;1.83;1.38;;;;;;;26.01;47.30;99171.45;261986;1096;115257;-57
2021/07/10 15:08:45;;;;;;;3.83;1.53;;;;;;;25.82;47.94;99173.75;262710;1095;114841;-58
2021/07/10 15:13:48;;;;;;;4.05;1.65;;;;;;;25.74;48.37;99179.26;262674;1095;114562;-59
2021/07/10 15:18:52;;;;;;;12.95;2.08;;;;;;;25.66;48.97;99160.28;262637;1096;114772;-59
2021/07/10 15:23:55;;;;;;;5.23;1.80;;;;;;;25.61;48.93;99157.27;262792;1096;115924;-58
2021/07/10 15:29:02;;;;;;;5.70;1.80;;;;;;;25.61;49.11;99165.44;262652;1096;115334;-58
2021/07/10 15:34:05;;;;;;;15.37;2.13;;;;;;;25.55;49.25;99155.32;262852;1095;114534;-55
2021/07/10 15:39:09;;;;;;;8.13;2.50;;;;;;;25.48;49.25;99150.62;262748;1096;115106;-55
2021/07/10 15:44:13;;;;;;;5.38;2.35;;;;;;;25.40;48.94;99137.06;262780;1095;114380;-58
2021/07/10 15:49:16;;;;;;;7.08;2.15;;;;;;;25.32;49.16;99144.51;262426;1095;115225;-57
2021/07/10 15:54:20;;;;;;;3.43;2.30;;;;;;;25.24;49.39;99146.29;262566;1095;115415;-56
2021/07/10 15:59:23;;;;;;;8.25;3.08;;;;;;;25.19;49.52;99148.72;262837;1095;115136;-58
2021/07/10 16:04:27;;;;;;;15.50;12.75;;;;;;;25.18;49.67;99143.47;262562;1096;114923;-56
2021/07/10 16:09:31;;;;;;;7.53;2.58;;;;;;;25.19;49.78;99137.81;262759;1096;114806;-57
2021/07/10 16:14:35;;;;;;;4.53;2.18;;;;;;;25.18;49.72;99138.86;262689;1095;114718;-57
2021/07/10 16:19:39;;;;;;;4.33;2.05;;;;;;;25.14;49.73;99142.16;262774;1096;114781;-58
2021/07/10 16:24:42;;;;;;;20.93;17.45;;;;;;;25.12;49.84;99145.05;262858;1095;114693;-57
2021/07/10 16:29:46;;;;;;;2.45;2.25;;;;;;;25.09;49.84;99148.11;262397;1095;115340;-55
2021/07/10 16:34:50;;;;;;;6.40;1.60;;;;;;;25.07;49.84;99152.04;262735;1096;115026;-58
2021/07/10 16:39:53;;;;;;;5.35;1.80;;;;;;;25.02;49.63;99153.45;262494;1095;115171;-58
2021/07/10 16:44:57;;;;;;;4.65;1.90;;;;;;;24.97;49.69;99147.73;262377;1096;115119;-57
2021/07/10 16:50:03;;;;;;;3.63;1.60;;;;;;;24.92;49.90;99163.75;262940;1096;115343;-57
2021/07/10 16:55:09;;;;;;;2.67;1.60;;;;;;;24.90;50.11;99167.72;262895;1095;115784;-59
2021/07/10 17:00:16;;;;;;;2.13;1.50;;;;;;;24.90;50.06;99156.83;262898;1096;114653;-59
2021/07/10 17:05:21;;;;;;;49.07;39.40;;;;;;;24.87;49.78;99158.03;262664;1096;114727;-59
2021/07/10 17:10:24;;;;;;;18.57;14.90;;;;;;;24.87;50.33;99168.08;262755;1095;115629;-58
2021/07/10 17:15:28;;;;;;;12.95;7.78;;;;;;;24.83;50.28;99161.28;262592;1096;115709;-58
2021/07/10 17:20:33;;;;;;;7.18;3.13;;;;;;;24.78;50.22;99165.41;262912;1095;114595;-57
2021/07/10 17:25:37;;;;;;;3.60;2.63;;;;;;;24.75;50.21;99157.61;262852;1096;114913;-58
2021/07/10 17:30:43;;;;;;;7.20;2.00;;;;;;;24.72;50.19;99160.70;262807;1096;114751;-59
2021/07/10 17:35:46;;;;;;;4.83;2.27;;;;;;;24.72;50.25;99163.42;262839;1095;115043;-58
2021/07/10 17:40:50;;;;;;;2.03;1.70;;;;;;;24.72;50.06;99168.86;262811;1096;115491;-56
2021/07/10 17:45:54;;;;;;;3.40;1.88;;;;;;;24.71;50.10;99175.34;262804;1095;114813;-58
2021/07/10 17:50:58;;;;;;;3.30;1.70;;;;;;;24.66;50.10;99175.06;262596;1095;115651;-61
2021/07/10 17:56:02;;;;;;;8.65;3.90;;;;;;;24.63;50.03;99174.58;262554;1095;116833;-60
2021/07/10 18:01:06;;;;;;;;;;;;;;;24.63;50.46;99177.30;262855;1095;115334;-58
2021/07/10 18:06:10;;;;;;;29.50;14.78;;;;;;;24.56;50.60;99182.63;262647;1096;101781;-57
2021/07/10 18:11:15;;;;;;;12.80;2.80;;;;;;;24.55;50.83;99181.75;262876;1095;115415;-59
2021/07/10 18:16:20;;;;;;;9.23;2.07;;;;;;;24.54;51.00;99185.51;262788;1095;115083;-58
2021/07/10 18:21:25;;;;;;;61.67;41.10;;;;;;;24.52;51.04;99181.27;262898;1095;114765;-59
2021/07/10 18:26:31;;;;;;;21.03;7.27;;;;;;;24.52;51.00;99181.27;262647;1096;115958;-64
2021/07/10 18:31:38;;;;;;;7.00;2.90;;;;;;;24.52;51.20;99178.55;262353;1096;114891;-60
2021/07/10 18:36:42;;;;;;;13.70;4.07;;;;;;;24.53;51.26;99191.98;262719;1095;114660;-60
2021/07/10 18:41:46;;;;;;;2.43;1.60;;;;;;;24.46;51.17;99193.74;262660;1095;114948;-59
2021/07/10 18:46:49;;;;;;;2.70;1.43;;;;;;;24.35;51.35;99188.66;262820;1095;114779;-62
2021/07/10 18:51:53;;;;;;;2.63;1.65;;;;;;;24.21;51.27;99197.59;262661;1096;114818;-60
2021/07/10 18:56:57;;;;;;;3.55;1.70;;;;;;;24.05;51.69;99201.27;262660;1095;115426;-59
2021/07/10 19:02:00;;;;;;;3.35;1.73;;;;;;;23.90;51.86;99192.15;262858;1096;114655;-58
2021/07/10 19:07:05;;;;;;;3.60;1.87;;;;;;;23.75;51.87;99201.05;262869;1096;115166;-58
2021/07/10 19:12:09;;;;;;;5.23;2.75;;;;;;;23.65;52.49;99200.38;262698;1095;115127;-58
2021/07/10 19:17:12;;;;;;;5.78;3.25;;;;;;;23.60;52.59;99216.34;262726;1096;114911;-58
2021/07/10 19:22:16;;;;;;;4.55;2.83;;;;;;;23.56;52.62;99209.56;262760;1096;115004;-62
2021/07/10 19:27:20;;;;;;;7.00;2.43;;;;;;;23.45;52.98;99210.79;262546;1095;116179;-54
2021/07/10 19:32:24;;;;;;;4.03;2.43;;;;;;;23.37;52.76;99206.23;262607;1096;115936;-57
2021/07/10 19:37:28;;;;;;;3.48;2.00;;;;;;;23.30;53.19;99205.23;262626;1095;114742;-58
2021/07/10 19:42:33;;;;;;;3.25;2.20;;;;;;;23.21;53.21;99198.11;262632;1096;116023;-58
2021/07/10 19:47:37;;;;;;;2.90;2.00;;;;;;;23.10;53.56;99204.75;262916;1096;115169;-59
2021/07/10 19:52:42;;;;;;;5.93;2.10;;;;;;;23.00;53.53;99220.36;262786;1095;115055;-59
2021/07/10 19:57:46;;;;;;;4.97;2.60;;;;;;;22.90;53.79;99212.36;262650;1096;115261;-59
2021/07/10 20:02:50;;;;;;;4.53;2.70;;;;;;;22.82;54.08;99219.63;262876;1095;115686;-61
2021/07/10 20:07:54;;;;;;;5.20;2.45;;;;;;;22.70;54.08;99218.29;262983;1095;116061;-60
2021/07/10 20:12:58;;;;;;;7.05;3.73;;;;;;;22.59;54.13;99211.33;262807;1095;114540;-59
2021/07/10 20:18:05;;;;;;;5.08;2.98;;;;;;;22.49;54.51;99216.06;262782;1095;115277;-57
2021/07/10 20:23:10;;;;;;;4.67;2.70;;;;;;;22.40;54.30;99226.03;262843;1095;115157;-59
2021/07/10 20:28:16;;;;;;;6.50;2.60;;;;;;;22.31;54.53;99219.73;262528;1096;115209;-59
2021/07/10 20:33:26;;;;;;;5.00;2.47;;;;;;;22.20;54.81;99220.05;262307;1095;114481;-60
2021/07/10 20:38:32;;;;;;;4.55;2.40;;;;;;;22.08;54.90;99214.06;262684;1096;115172;-59
2021/07/10 20:43:36;;;;;;;9.88;2.33;;;;;;;21.99;54.91;99216.91;262848;1096;116132;-57
2021/07/10 20:48:40;;;;;;;4.23;2.53;;;;;;;21.91;55.25;99217.73;262662;1095;115130;-58
2021/07/10 20:53:46;;;;;;;2.87;2.07;;;;;;;21.81;54.84;99225.98;262612;1095;114582;-59
2021/07/10 20:58:50;;;;;;;;;;;;;;;21.75;55.58;99210.38;262634;1096;115142;-58
2021/07/10 21:03:54;;;;;;;6.40;2.60;;;;;;;21.65;55.72;99218.62;263016;1095;101508;-59
2021/07/10 21:08:59;;;;;;;4.63;2.37;;;;;;;21.61;56.11;99213.70;262537;1095;115010;-60
2021/07/10 21:14:03;;;;;;;2.63;2.30;;;;;;;21.57;55.96;99221.30;262747;1095;114602;-58
2021/07/10 21:19:08;;;;;;;5.18;3.08;;;;;;;21.58;56.17;99216.72;262873;1095;114995;-59
2021/07/10 21:24:13;;;;;;;3.60;2.67;;;;;;;21.57;56.15;99215.88;262674;1095;114902;-60
2021/07/10 21:29:17;;;;;;;3.83;2.95;;;;;;;21.53;56.32;99211.77;262864;1094;114986;-59
2021/07/10 21:34:21;;;;;;;5.50;3.58;;;;;;;21.47;56.27;99205.16;262819;1095;115454;-58
2021/07/10 21:39:24;;;;;;;4.45;3.70;;;;;;;21.36;56.32;99210.83;262687;1095;115848;-59
2021/07/10 21:44:28;;;;;;;6.25;3.90;;;;;;;21.23;56.54;99200.41;262560;1096;114623;-58
2021/07/10 21:49:32;;;;;;;7.05;3.98;;;;;;;21.12;56.78;99203.36;262716;1095;114926;-58
2021/07/10 21:54:35;;;;;;;5.23;4.33;;;;;;;21.05;57.03;99199.59;262794;1095;114770;-58
2021/07/10 21:59:40;;;;;;;;;;;;;;;20.99;57.07;99198.39;262745;1095;114828;-59
2021/07/10 22:04:43;;;;;;;6.47;4.67;;;;;;;20.94;57.36;99194.45;261518;1096;102980;-59
2021/07/10 22:09:48;;;;;;;5.83;4.57;;;;;;;20.90;57.33;99190.36;262688;1095;114899;-60
2021/07/10 22:14:52;;;;;;;6.95;5.58;;;;;;;20.86;58.01;99181.71;262741;1095;114275;-61
2021/07/10 22:19:56;;;;;;;7.35;5.80;;;;;;;20.84;57.79;99178.30;262345;1095;114901;-61
2021/07/10 22:25:00;;;;;;;7.55;6.70;;;;;;;20.84;57.86;99181.01;262855;1095;115071;-57
2021/07/10 22:30:07;;;;;;;10.80;6.70;;;;;;;20.82;57.66;99169.48;262579;1095;114753;-56
2021/07/10 22:35:11;;;;;;;7.07;6.37;;;;;;;20.81;57.81;99170.50;262591;1096;116704;-59
2021/07/10 22:40:16;;;;;;;10.08;6.85;;;;;;;20.78;58.12;99171.66;262755;1095;114822;-58
2021/07/10 22:45:20;;;;;;;9.48;6.83;;;;;;;20.71;58.16;99164.33;262869;1095;115014;-57
2021/07/10 22:50:24;;;;;;;;;;;;;;;20.66;58.33;99163.97;262367;1095;114724;-59
2021/07/10 22:55:28;;;;;;;8.53;7.20;;;;;;;20.61;58.56;99168.98;262774;1095;101383;-58
2021/07/10 23:00:32;;;;;;;7.05;5.85;;;;;;;20.61;58.67;99166.27;262761;1096;114887;-61
2021/07/10 23:05:37;;;;;;;7.33;6.37;;;;;;;20.61;58.67;99171.69;262998;1096;114786;-58
2021/07/10 23:10:41;;;;;;;9.08;6.90;;;;;;;20.64;58.87;99164.11;262807;1096;114841;-59
2021/07/10 23:15:45;;;;;;;;;;;;;;;20.66;58.99;99166.67;262824;1095;114582;-58
2021/07/10 23:20:50;;;;;;;10.93;7.20;;;;;;;20.61;59.05;99160.87;262911;1095;103265;-59
2021/07/10 23:25:54;;;;;;;;;;;;;;;20.57;58.88;99157.63;262678;1095;115396;-58
2021/07/10 23:31:00;;;;;;;11.50;8.05;;;;;;;20.48;59.12;99170.22;262719;1096;101649;-58
2021/07/10 23:36:05;;;;;;;13.05;7.98;;;;;;;20.44;59.17;99166.09;262153;1096;114840;-59
2021/07/10 23:41:09;;;;;;;11.97;8.03;;;;;;;20.36;59.39;99171.44;262845;1095;114883;-58
2021/07/10 23:46:14;;;;;;;9.53;7.38;;;;;;;20.29;59.30;99167.66;262105;1095;114874;-60
2021/07/10 23:51:18;;;;;;;9.63;6.83;;;;;;;20.23;59.83;99165.56;262649;1096;115291;-58
2021/07/10 23:56:22;;;;;;;9.20;6.00;;;;;;;20.20;59.60;99147.79;262674;1095;115293;-59
